Aeroporto :
LOGIN :

Iscrizione | Disclaimer

   EN    FR    IT 

 










Sommario :    VFR   VFR Marginale   IFR   IFR Intensivo   IFR Molto Intensivo
Visibilità : 
Base nubi : 
>= 8 km
>= 3000ft
5 / 8 km
1000 / 3000 ft
1500m / 5 km
500 / 1000 ft
800 / 1500m
200 / 500 ft
< 800m
< 200 ft
Simboli :   Temporali  Nebbia  Neve Forte  Precipitazioni Forti  Vento > 20 kt
SIGMETs :   Varie  Temporali  Ghiacco  Turbolenza  Onda orograficha  Ceneri Vulcaniche







- Altitudine del aeroporto : 580 ft
- Carte del aeroporto


LFOA - Avord

ULTIMO METAR :
  • 150330Z AUTO 10003KT 4400 BR FEW003 BKN028 M05/M05 Q1022

METARs OBSOLETI :
  • 150300Z AUTO 12002KT 3800 BR SCT029 M05/M05 Q1023
  • 150230Z AUTO 00000KT 4200 BR FEW030 M05/M06 Q1023
  • 150200Z AUTO 10002KT 3800 BR NSC M04/M04 Q1023
  • 150130Z AUTO VRB02KT 4300 BR FEW031 M04/M05 Q1023
  • 150100Z AUTO 25002KT 4300 2000 BR FEW031 M04/M04 Q1023

TAF TAF LFOA
Valido dal 14 a 15 ore il 15 a 15 ore UTC


141400Z 1415/1515 VRB02KT CAVOK
TEMPO 1420/1508 3000 BR
PROB30
TEMPO 1422/1507 0800 FZFG VV///
BECMG 1506/1509 12010KT
BECMG 1511/1513 4000 RA SCT014 BKN025
PROB30
TEMPO 1512/1515 -FZRA BKN008
Nessun NOTAM noto per questo aeroporto.



MetMap, La meteo Aeronautica in un colpo d'occhio ! - Copyright ORBIFLY Dicembre 2007 - Disclaimer

ORBIFLY MET'MAP TEAM :

Programmazione e sviluppo : Alexandra Zaïnal
Concezione e sviluppo : Baudouin d'Aumeries
Co-Programmazione e sviluppo : Marc-Olivier Méhu
Supporto tecnico e logistico : Manuel Goepfert
Aiuto per la traduzione : Arnaldo La Scala

Contatto : metmap@orbifly.com




FONTI E CREDITI :

   NOAA